Stations météo

réclame
Mon MeteoGroup
Langdon Bay, Grande-Bretagne (3796): Température de l'air & dewpoint: 19.09.2018 08:00:00 - 25.09.2018 08:00:00 (BST)Langdon Bay, Grande-Bretagne (3796): Vitesse du vent & gusts: 19.09.2018 08:00:00 - 25.09.2018 08:00:00 (BST)Langdon Bay, Grande-Bretagne (3796): Direction du vent: 19.09.2018 08:00:00 - 25.09.2018 08:00:00 (BST)Langdon Bay, Grande-Bretagne (3796): reduced air pressure: 19.09.2018 08:00:00 - 25.09.2018 08:00:00 (BST)
Date & Time tt [°C] td [°C] ff [km/h] ff [knt] fx [km/h] fx [knt] dd ppp [hPa]
25.09.2018 08:00:00 8,0 6,5 13 7 - - NNW 1038,7
25.09.2018 07:00:00 8,1 6,1 16 9 - - NNW 1038,5
25.09.2018 06:00:00 7,9 4,6 18 10 - - NNW 1038,5
25.09.2018 05:00:00 7,2 3,2 18 10 - - NNW 1038,5
25.09.2018 04:00:00 7,0 3,1 11 6 - - NNW 1038,5
25.09.2018 03:00:00 6,5 3,2 11 6 - - NNW 1038,8
25.09.2018 02:00:00 6,9 3,5 9 5 - - NNW 1038,8
25.09.2018 01:00:00 7,2 3,6 11 6 - - NNW 1039,0
25.09.2018 00:00:00 7,5 3,9 11 6 - - NNW 1039,0
24.09.2018 23:00:00 8,1 4,3 9 5 - - NW 1039,2
24.09.2018 22:00:00 8,0 4,7 11 6 - - WNW 1039,0
24.09.2018 21:00:00 8,5 5,0 9 5 - - WNW 1038,8
24.09.2018 20:00:00 7,5 5,3 5 3 - - NNW 1038,3
24.09.2018 19:00:00 8,7 4,8 9 5 - - N 1037,8
24.09.2018 18:00:00 13,0 4,7 13 7 - - N 1037,2
24.09.2018 17:00:00 14,8 5,6 16 9 - - N 1037,2
24.09.2018 16:00:00 15,1 5,9 13 7 - - N 1037,2
24.09.2018 15:00:00 15,5 6,0 13 7 - - N 1037,4
24.09.2018 14:00:00 15,8 6,7 15 8 - - NNW 1037,1
24.09.2018 13:00:00 15,3 8,0 18 10 - - NNW 1037,3
24.09.2018 12:00:00 14,3 7,6 24 13 - - NNW 1037,1
24.09.2018 11:00:00 12,6 7,8 22 12 - - NW 1036,9
24.09.2018 10:00:00 10,9 7,0 24 13 - - NNW 1036,6
24.09.2018 09:00:00 9,4 6,8 22 12 - - NW 1036,2
24.09.2018 08:00:00 7,7 6,1 24 13 - - NW 1035,5
24.09.2018 07:00:00 6,5 5,2 24 13 - - NW 1034,8
24.09.2018 06:00:00 6,8 5,0 24 13 - - NW 1034,5
24.09.2018 05:00:00 6,9 5,4 24 13 - - NW 1034,1
24.09.2018 04:00:00 6,9 5,5 24 13 - - WNW 1033,4
24.09.2018 03:00:00 7,0 5,8 24 13 - - NW 1032,8
24.09.2018 02:00:00 7,6 6,2 22 12 - - NW 1031,7
24.09.2018 01:00:00 7,9 6,6 22 12 - - NNW 1031,0
24.09.2018 00:00:00 7,8 6,5 22 12 - - NNW 1029,9
23.09.2018 23:00:00 7,8 6,4 22 12 - - NNW 1028,9
23.09.2018 22:00:00 8,2 6,1 21 11 - - NNW 1027,9
23.09.2018 21:00:00 8,7 6,5 22 12 - - NNW 1026,5
23.09.2018 20:00:00 8,9 5,9 22 12 46 25 NNW 1024,9
23.09.2018 19:00:00 9,5 5,2 26 14 - - NNW 1022,9
23.09.2018 18:00:00 10,7 5,8 22 12 - - NNW 1021,7
23.09.2018 17:00:00 11,3 7,4 24 13 48 26 NW 1020,5
23.09.2018 16:00:00 9,9 8,1 28 15 46 25 NNW 1019,2
23.09.2018 15:00:00 9,5 9,0 26 14 50 27 NNW 1017,7
23.09.2018 14:00:00 9,3 8,7 31 17 63 34 NNW 1016,4
23.09.2018 13:00:00 11,0 10,4 42 23 65 35 N 1014,2
23.09.2018 12:00:00 10,6 10,4 34 18 55 30 NNW 1013,5
23.09.2018 11:00:00 11,2 10,9 34 18 50 27 N 1012,5
23.09.2018 10:00:00 11,6 11,4 22 12 - - N 1011,9
23.09.2018 09:00:00 12,2 12,0 16 9 - - NNE 1011,3
23.09.2018 08:00:00 12,0 11,6 8 4 - - N 1011,4
23.09.2018 07:00:00 12,0 11,5 13 7 - - NNE 1011,9
23.09.2018 06:00:00 12,2 11,4 15 8 - - NE 1012,0
23.09.2018 05:00:00 12,0 11,4 16 9 - - NE 1012,2
23.09.2018 04:00:00 12,0 11,4 15 8 - - ENE 1012,4
23.09.2018 03:00:00 11,8 11,1 18 10 - - ENE 1012,7
23.09.2018 02:00:00 11,7 11,2 21 11 - - E 1012,8
23.09.2018 01:00:00 11,8 11,4 28 15 - - ESE 1012,8
23.09.2018 00:00:00 11,8 11,3 29 16 46 25 ESE 1012,8
22.09.2018 23:00:00 11,6 11,3 34 18 - - ESE 1013,3
22.09.2018 22:00:00 11,2 11,0 26 14 - - ESE 1014,4
22.09.2018 21:00:00 11,0 10,6 24 13 - - SE 1015,1
22.09.2018 20:00:00 11,2 10,9 28 15 - - SE 1015,3
22.09.2018 19:00:00 10,4 10,1 11 6 - - ESE 1016,5
22.09.2018 18:00:00 10,4 9,6 4 2 - - E 1017,2
22.09.2018 17:00:00 10,5 9,4 5 3 - - S 1017,9
22.09.2018 16:00:00 10,8 9,2 8 4 - - WSW 1018,7
22.09.2018 15:00:00 11,7 8,7 13 7 - - WSW 1019,3
22.09.2018 14:00:00 11,7 10,0 11 6 - - W 1020,0
22.09.2018 13:00:00 12,3 7,6 16 9 - - WSW 1020,1
22.09.2018 12:00:00 13,6 9,1 13 7 - - W 1020,4
22.09.2018 11:00:00 13,3 8,4 13 7 - - W 1019,9
22.09.2018 10:00:00 12,8 8,0 16 9 - - W 1019,9
22.09.2018 09:00:00 12,0 8,8 11 6 - - W 1019,8
22.09.2018 08:00:00 10,9 8,2 11 6 - - W 1019,8
22.09.2018 07:00:00 10,6 7,7 13 7 - - W 1019,6
22.09.2018 06:00:00 10,5 7,7 15 8 - - W 1019,5
22.09.2018 05:00:00 10,6 7,4 21 11 - - WNW 1019,5
22.09.2018 04:00:00 11,0 7,5 16 9 - - W 1019,3
22.09.2018 03:00:00 10,7 7,1 16 9 - - W 1019,6
22.09.2018 02:00:00 10,3 6,7 16 9 - - W 1019,7
22.09.2018 01:00:00 10,9 6,8 21 11 - - W 1019,3
22.09.2018 00:00:00 10,9 6,8 21 11 - - W 1019,1
21.09.2018 23:00:00 11,2 6,3 24 13 - - W 1018,1
21.09.2018 22:00:00 11,6 6,1 22 12 - - W 1017,3
21.09.2018 21:00:00 12,2 6,1 22 12 - - WSW 1016,6
21.09.2018 20:00:00 12,8 6,0 21 11 - - W 1015,4
21.09.2018 19:00:00 13,9 5,7 26 14 52 28 W 1013,9
21.09.2018 18:00:00 14,7 5,5 31 17 57 31 W 1012,7
21.09.2018 17:00:00 15,7 5,5 37 20 57 31 WSW 1012,0
21.09.2018 16:00:00 15,8 4,6 37 20 59 32 WSW 1011,3
21.09.2018 15:00:00 16,6 4,5 35 19 59 32 WSW 1010,7
21.09.2018 14:00:00 15,2 5,4 35 19 61 33 WSW 1010,7
21.09.2018 13:00:00 15,2 4,9 41 22 63 34 WSW 1010,1
21.09.2018 12:00:00 14,9 5,9 31 17 57 31 WSW 1009,6
21.09.2018 11:00:00 13,6 4,9 31 17 54 29 W 1009,2
21.09.2018 10:00:00 12,8 7,1 31 17 50 27 W 1008,4
21.09.2018 09:00:00 12,0 7,5 26 14 - - W 1006,9
21.09.2018 08:00:00 11,2 7,8 24 13 - - W 1005,5
21.09.2018 07:00:00 11,4 8,6 24 13 55 30 W 1003,8
21.09.2018 06:00:00 11,9 8,8 34 18 54 29 W 1002,4
21.09.2018 05:00:00 14,1 13,0 37 20 87 47 WSW 1000,5
21.09.2018 04:00:00 16,7 16,2 48 26 87 47 SSW 998,5
21.09.2018 03:00:00 17,9 15,4 52 28 89 48 SSW 998,9
21.09.2018 02:00:00 17,7 15,4 54 29 85 46 SSW 1000,0
21.09.2018 01:00:00 18,3 14,9 44 24 74 40 SSW 1002,1
21.09.2018 00:00:00 18,5 15,0 41 22 68 37 SSW 1003,4
20.09.2018 23:00:00 18,7 15,0 42 23 61 33 SSW 1004,7
20.09.2018 22:00:00 18,2 15,6 31 17 50 27 SW 1006,1
20.09.2018 21:00:00 18,1 15,7 28 15 46 25 SW 1006,7
20.09.2018 20:00:00 18,4 15,7 26 14 48 26 SSW 1007,9
20.09.2018 19:00:00 18,2 16,0 18 10 - - SSW 1008,9
20.09.2018 18:00:00 18,4 15,9 16 9 - - SW 1009,9
20.09.2018 17:00:00 18,8 16,1 16 9 - - SW 1010,8
20.09.2018 16:00:00 18,6 15,6 24 13 55 30 SW 1011,6
20.09.2018 15:00:00 18,4 16,0 29 16 57 31 SSW 1012,1
20.09.2018 14:00:00 18,3 15,9 29 16 55 30 SSW 1012,6
20.09.2018 13:00:00 19,0 15,9 28 15 55 30 SW 1013,2
20.09.2018 12:00:00 18,5 15,7 34 18 57 31 SSW 1013,9
20.09.2018 11:00:00 18,6 15,3 34 18 59 32 SW 1013,9
20.09.2018 10:00:00 17,7 14,9 26 14 48 26 SW 1014,2
20.09.2018 09:00:00 17,2 14,9 31 17 48 26 WSW 1014,5
20.09.2018 08:00:00 16,9 15,7 26 14 50 27 SW 1014,4
20.09.2018 07:00:00 17,0 14,9 28 15 48 26 WSW 1014,3
20.09.2018 06:00:00 17,1 15,8 26 14 50 27 SW 1014,3
20.09.2018 05:00:00 17,3 16,5 28 15 - - SSW 1014,3
20.09.2018 04:00:00 17,0 15,9 22 12 - - SW 1014,9
20.09.2018 03:00:00 16,7 15,3 21 11 - - WSW 1015,1
20.09.2018 02:00:00 16,8 15,9 16 9 - - SW 1015,5
20.09.2018 01:00:00 16,8 16,2 16 9 - - SW 1015,4
20.09.2018 00:00:00 16,6 15,8 28 15 - - WSW 1015,9
19.09.2018 23:00:00 16,9 15,9 29 16 48 26 WSW 1015,8
19.09.2018 22:00:00 17,3 15,5 35 19 54 29 WSW 1015,7
19.09.2018 21:00:00 17,3 15,5 28 15 57 31 SW 1015,8
19.09.2018 20:00:00 17,6 15,8 34 18 52 28 WSW 1015,7
19.09.2018 19:00:00 18,0 16,0 24 13 50 27 SW 1015,3
19.09.2018 18:00:00 18,5 16,2 24 13 57 31 SW 1015,1
19.09.2018 17:00:00 19,1 16,2 28 15 57 31 SW 1014,6
19.09.2018 16:00:00 19,1 16,0 35 19 65 35 SW 1014,5
19.09.2018 15:00:00 18,8 15,7 35 19 61 33 SW 1014,5
19.09.2018 14:00:00 18,8 16,0 35 19 65 35 SSW 1014,7
19.09.2018 13:00:00 18,0 16,0 31 17 57 31 SSW 1014,8
19.09.2018 12:00:00 17,8 16,1 28 15 52 28 SSW 1014,8
19.09.2018 11:00:00 17,6 16,1 26 14 48 26 SW 1014,9
19.09.2018 10:00:00 17,7 16,3 26 14 46 25 SW 1014,7
19.09.2018 09:00:00 17,3 16,1 26 14 46 25 SW 1014,4
19.09.2018 08:00:00 17,2 16,1 22 12 - - SW 1014,2

tt = Température de l'air
td = dewpoint
ff = Vitesse du vent
fx = gusts
dd = Direction du vent
ppp = reduced air pressure

stations d'obs. à proximité